Time;durP1;ratioP1;P1;durP2;ratioP2;P2;SDS_P1;SDS_P2;PMS_P1;PMS_P2;Temp;Humidity;BMP_temperature;BMP_pressure;BME280_temperature;BME280_humidity;BME280_pressure;Samples;Min_cycle;Max_cycle;Signal;HPM_P1;HPM_P2
2022/11/15 00:00:51;;;;;;;8.97;4.80;;;8.60;99.90;;;;;;4966273;28;20228;-81
2022/11/15 00:03:18;;;;;;;5.80;5.13;;;8.60;99.90;;;;;;4966355;28;20404;-81
2022/11/15 00:05:45;;;;;;;7.03;4.70;;;8.60;99.90;;;;;;4967791;28;20216;-80
2022/11/15 00:08:11;;;;;;;6.73;5.33;;;8.60;99.90;;;;;;4968039;28;20216;-82
2022/11/15 00:10:37;;;;;;;6.77;5.80;;;8.60;99.90;;;;;;4967731;28;20639;-82
2022/11/15 00:13:07;;;;;;;9.07;5.93;;;8.60;99.90;;;;;;4967947;28;20216;-81
2022/11/15 00:15:37;;;;;;;7.77;4.90;;;8.60;99.90;;;;;;4966601;28;21016;-81
2022/11/15 00:18:03;;;;;;;7.07;5.80;;;8.50;99.90;;;;;;4967336;28;20594;-81
2022/11/15 00:20:29;;;;;;;12.67;7.10;;;8.50;99.90;;;;;;4967902;28;20225;-81
2022/11/15 00:22:55;;;;;;;10.73;4.93;;;8.50;99.90;;;;;;4966302;28;20231;-81
2022/11/15 00:25:21;;;;;;;8.17;4.97;;;8.60;99.90;;;;;;4967506;28;20627;-81
2022/11/15 00:27:46;;;;;;;8.80;6.97;;;8.50;99.90;;;;;;4967528;28;20258;-83
2022/11/15 00:30:12;;;;;;;8.30;5.00;;;8.50;99.90;;;;;;4948742;28;20232;-80
2022/11/15 00:32:38;;;;;;;6.83;5.70;;;8.50;99.90;;;;;;4966255;28;20232;-81
2022/11/15 00:35:04;;;;;;;6.40;5.57;;;8.50;99.90;;;;;;4950122;28;20701;-81
2022/11/15 00:37:30;;;;;;;10.87;9.10;;;8.50;99.90;;;;;;4951053;28;20192;-81
2022/11/15 00:39:55;;;;;;;8.33;6.87;;;8.50;99.90;;;;;;4965863;28;20236;-82
2022/11/15 00:42:21;;;;;;;6.83;6.00;;;8.50;99.90;;;;;;4965918;28;20220;-81
2022/11/15 00:44:47;;;;;;;10.53;4.60;;;8.50;99.90;;;;;;4967178;28;20613;-80
2022/11/15 00:47:13;;;;;;;7.17;6.43;;;8.50;99.90;;;;;;4965218;28;20216;-81
2022/11/15 00:49:38;;;;;;;6.30;5.37;;;8.50;99.90;;;;;;4965561;28;20248;-81
2022/11/15 00:52:04;;;;;;;9.47;5.47;;;8.50;99.90;;;;;;4967121;28;20228;-81
2022/11/15 00:54:30;;;;;;;9.30;5.67;;;8.50;99.90;;;;;;4965331;28;20746;-81
2022/11/15 00:56:55;;;;;;;7.00;5.50;;;8.50;99.90;;;;;;4965249;28;20287;-81
2022/11/15 00:59:21;;;;;;;6.27;5.47;;;8.50;99.90;;;;;;4965164;28;20317;-81
2022/11/15 01:01:47;;;;;;;5.37;4.87;;;8.50;99.90;;;;;;4966844;28;20189;-81
2022/11/15 01:04:13;;;;;;;12.53;6.17;;;8.60;99.90;;;;;;4966776;28;20200;-81
2022/11/15 01:06:39;;;;;;;10.33;4.67;;;8.60;99.90;;;;;;4965388;28;20228;-81
2022/11/15 01:09:05;;;;;;;5.87;4.03;;;8.50;99.90;;;;;;4933103;28;20225;-81
2022/11/15 01:11:30;;;;;;;7.57;5.30;;;8.50;99.90;;;;;;4949063;28;20634;-82
2022/11/15 01:13:56;;;;;;;11.10;5.53;;;8.50;99.90;;;;;;4965537;28;20209;-82
2022/11/15 01:16:22;;;;;;;4.80;4.13;;;8.50;99.90;;;;;;4948873;28;20205;-82
2022/11/15 01:18:47;;;;;;;8.47;5.93;;;8.50;99.90;;;;;;4965401;28;20229;-82
2022/11/15 01:21:16;;;;;;;9.47;6.03;;;8.40;99.90;;;;;;4964295;28;21060;-80
2022/11/15 01:23:42;;;;;;;7.83;5.90;;;8.40;99.90;;;;;;4965121;28;20702;-82
2022/11/15 01:26:12;;;;;;;8.43;6.67;;;8.40;99.90;;;;;;4948423;28;20331;-81
2022/11/15 01:28:40;;;;;;;8.20;5.23;;;8.40;99.90;;;;;;4965393;28;20549;-82
2022/11/15 01:31:14;;;;;;;6.53;5.10;;;8.40;99.90;;;;;;4966093;28;20663;-82
2022/11/15 01:33:40;;;;;;;30.00;5.33;;;8.40;99.90;;;;;;4965552;28;20315;-82
2022/11/15 01:36:26;;;;;;;5.73;5.13;;;8.40;99.90;;;;;;4966076;28;20223;-81
2022/11/15 01:38:57;;;;;;;5.73;5.07;;;8.40;99.90;;;;;;4949065;28;20876;-82
2022/11/15 01:41:26;;;;;;;6.57;5.43;;;8.40;99.90;;;;;;4964829;28;20225;-82
2022/11/15 01:43:54;;;;;;;8.03;6.30;;;8.40;99.90;;;;;;4966651;28;20674;-82
2022/11/15 01:46:22;;;;;;;6.80;4.83;;;8.40;99.90;;;;;;4966093;28;20212;-81
2022/11/15 01:48:51;;;;;;;4.80;4.33;;;8.30;99.90;;;;;;4965658;28;20244;-84
2022/11/15 01:51:18;;;;;;;8.07;4.90;;;8.30;99.90;;;;;;4964369;28;20221;-82
2022/11/15 01:53:47;;;;;;;9.10;6.90;;;8.30;99.90;;;;;;4964741;28;20320;-81
2022/11/15 01:56:22;;;;;;;7.50;4.93;;;8.20;99.90;;;;;;4965430;28;20227;-82
2022/11/15 01:58:51;;;;;;;9.70;6.57;;;8.10;99.90;;;;;;4965355;28;20267;-81
2022/11/15 02:01:17;;;;;;;5.13;4.60;;;8.10;99.90;;;;;;4948816;28;20198;-81
2022/11/15 02:03:57;;;;;;;11.87;8.27;;;8.00;99.90;;;;;;4948900;28;20224;-81
2022/11/15 02:06:23;;;;;;;8.80;6.73;;;8.00;99.90;;;;;;4964658;28;20216;-81
2022/11/15 02:08:50;;;;;;;7.33;5.30;;;8.00;99.90;;;;;;4966014;28;20232;-81
2022/11/15 02:11:16;;;;;;;9.27;6.13;;;8.00;99.90;;;;;;4964903;28;20224;-82
2022/11/15 02:13:43;;;;;;;9.77;7.10;;;8.00;99.90;;;;;;4965508;28;20232;-82
2022/11/15 02:16:35;;;;;;;4.13;2.53;;;7.90;99.90;;;;;;4966808;28;20215;-82
2022/11/15 02:19:46;;;;;;;7.33;6.37;;;7.80;99.90;;;;;;4965813;28;20225;-82
2022/11/15 02:22:39;;;;;;;6.60;5.50;;;7.80;99.90;;;;;;4950318;28;20388;-82
2022/11/15 02:25:38;;;;;;;9.23;6.17;;;7.80;99.90;;;;;;4965751;28;20294;-83
2022/11/15 02:28:27;;;;;;;12.77;5.87;;;7.80;99.90;;;;;;4955994;28;20213;-81
2022/11/15 02:30:57;;;;;;;5.30;4.33;;;7.70;99.90;;;;;;4964727;28;20235;-81
2022/11/15 02:33:39;;;;;;;9.13;5.47;;;7.70;99.90;;;;;;4965330;28;20240;-83
2022/11/15 02:36:46;;;;;;;6.60;5.17;;;7.60;99.90;;;;;;4965840;28;21248;-81
2022/11/15 02:39:35;;;;;;;9.83;5.70;;;7.60;99.90;;;;;;4918406;29;20226;-83
2022/11/15 02:44:59;;;;;;;12.17;5.13;;;7.50;99.90;;;;;;4959650;28;20216;-81
2022/11/15 02:47:29;;;;;;;10.60;5.90;;;7.40;99.90;;;;;;4965037;28;20319;-82
2022/11/15 02:50:00;;;;;;;8.87;6.37;;;7.40;99.90;;;;;;4965982;28;20243;-82
2022/11/15 02:52:26;;;;;;;7.33;5.33;;;7.40;99.90;;;;;;4966739;28;20208;-84
2022/11/15 02:54:57;;;;;;;10.47;8.37;;;7.40;99.90;;;;;;4952581;28;20539;-82
2022/11/15 02:57:47;;;;;;;11.10;6.80;;;7.40;99.90;;;;;;4968785;28;20682;-82
2022/11/15 03:00:19;;;;;;;8.20;5.00;;;7.40;99.90;;;;;;4968662;28;20737;-81
2022/11/15 03:03:12;;;;;;;7.23;5.60;;;7.40;99.90;;;;;;4969868;28;20243;-82
2022/11/15 03:05:58;;;;;;;6.13;4.50;;;7.50;99.90;;;;;;4969495;28;20267;-81
2022/11/15 03:08:32;;;;;;;5.50;4.87;;;7.50;99.90;;;;;;4967468;28;20224;-82
2022/11/15 03:11:17;;;;;;;8.50;6.17;;;7.50;99.90;;;;;;4969106;28;20226;-82
2022/11/15 03:13:57;;;;;;;7.60;4.27;;;7.50;99.90;;;;;;4968785;28;20579;-83
2022/11/15 03:16:45;;;;;;;10.47;7.33;;;7.50;99.90;;;;;;4969091;28;20197;-83
2022/11/15 03:19:17;;;;;;;4.97;3.73;;;7.50;99.90;;;;;;4969689;28;20248;-80
2022/11/15 03:21:45;;;;;;;8.90;6.33;;;7.50;99.90;;;;;;4968643;28;20216;-84
2022/11/15 03:24:14;;;;;;;10.33;4.77;;;7.60;99.90;;;;;;4952019;28;20256;-83
2022/11/15 03:26:43;;;;;;;10.30;5.80;;;7.60;99.90;;;;;;4969432;28;20287;-82
2022/11/15 03:29:14;;;;;;;6.23;4.40;;;7.60;99.90;;;;;;4967603;28;20693;-81
2022/11/15 03:31:48;;;;;;;4.63;2.27;;;7.60;99.90;;;;;;4968866;28;20513;-81
2022/11/15 03:34:35;;;;;;;16.87;6.20;;;7.60;99.90;;;;;;4969904;28;20184;-82
2022/11/15 03:37:01;;;;;;;6.37;5.00;;;7.60;99.90;;;;;;4969627;28;20215;-82
2022/11/15 03:39:28;;;;;;;4.97;4.57;;;7.60;99.90;;;;;;4967094;28;20286;-82
2022/11/15 03:42:24;;;;;;;11.17;7.00;;;7.60;99.90;;;;;;4983883;28;20765;-81
2022/11/15 03:45:02;;;;;;;10.30;6.67;;;7.50;99.90;;;;;;4984009;28;20248;-84
2022/11/15 03:48:05;;;;;;;14.13;4.47;;;7.50;99.90;;;;;;4968595;28;20216;-81
2022/11/15 03:50:31;;;;;;;8.57;4.30;;;7.60;99.90;;;;;;4967057;28;20236;-83
2022/11/15 03:52:58;;;;;;;14.67;8.27;;;7.60;99.90;;;;;;4967515;28;21070;-81
2022/11/15 03:55:24;;;;;;;11.47;7.37;;;7.60;99.90;;;;;;4967477;28;20215;-84
2022/11/15 03:57:52;;;;;;;9.97;7.10;;;7.60;99.90;;;;;;4950867;28;20221;-82
2022/11/15 04:00:18;;;;;;;9.80;7.03;;;7.70;99.90;;;;;;4966682;28;20236;-82
2022/11/15 04:02:44;;;;;;;16.77;6.80;;;7.70;99.90;;;;;;4951569;28;20232;-81
2022/11/15 04:05:10;;;;;;;9.10;5.77;;;7.70;99.90;;;;;;4967575;28;20728;-82
2022/11/15 04:07:35;;;;;;;7.00;6.13;;;7.70;99.90;;;;;;4968494;28;20614;-82
2022/11/15 04:10:05;;;;;;;10.47;8.33;;;7.70;99.90;;;;;;4969511;28;20315;-82
2022/11/15 04:12:33;;;;;;;6.57;4.97;;;7.80;99.90;;;;;;4966812;28;20237;-81
2022/11/15 04:15:07;;;;;;;13.27;8.50;;;7.70;99.90;;;;;;4982756;28;20224;-83
2022/11/15 04:17:40;;;;;;;12.93;7.30;;;7.80;99.90;;;;;;4968717;28;20220;-81
2022/11/15 04:25:46;;;;;;;12.60;5.73;;;7.80;99.90;;;;;;4968192;28;20702;-83
2022/11/15 04:28:12;;;;;;;11.03;5.60;;;7.80;99.90;;;;;;4951554;28;20216;-82
2022/11/15 04:30:38;;;;;;;12.83;6.57;;;7.80;99.90;;;;;;4951091;28;20255;-84
2022/11/15 04:33:04;;;;;;;7.63;6.33;;;7.80;99.90;;;;;;4967371;28;20782;-82
2022/11/15 04:35:29;;;;;;;15.83;6.70;;;7.80;99.90;;;;;;4966508;28;21024;-82
2022/11/15 04:37:56;;;;;;;14.40;6.57;;;7.90;99.90;;;;;;4967989;28;20304;-82
2022/11/15 04:40:22;;;;;;;6.77;6.17;;;7.90;99.90;;;;;;4966286;28;20243;-82
2022/11/15 04:42:48;;;;;;;4.20;3.83;;;8.00;99.90;;;;;;4966987;28;20229;-82
2022/11/15 04:45:13;;;;;;;12.77;7.30;;;8.10;99.90;;;;;;4966013;28;20286;-81
2022/11/15 04:47:39;;;;;;;9.80;7.20;;;8.00;99.90;;;;;;4966261;28;20239;-82
2022/11/15 04:50:05;;;;;;;10.97;6.10;;;8.00;99.90;;;;;;4967594;28;20229;-81
2022/11/15 04:52:31;;;;;;;10.53;8.53;;;8.10;99.90;;;;;;4966446;28;20220;-81
2022/11/15 04:54:57;;;;;;;9.90;6.70;;;8.10;99.90;;;;;;4966198;28;20744;-81
2022/11/15 04:57:23;;;;;;;14.40;7.97;;;8.10;99.90;;;;;;4965904;28;20224;-81
2022/11/15 04:59:48;;;;;;;11.30;8.40;;;8.20;99.90;;;;;;4949928;28;20917;-83
2022/11/15 05:02:14;;;;;;;8.93;5.87;;;8.20;99.90;;;;;;4965884;28;20654;-82
2022/11/15 05:04:40;;;;;;;9.57;6.03;;;8.20;99.90;;;;;;4950008;28;20204;-80
2022/11/15 05:07:05;;;;;;;7.83;5.93;;;8.20;99.90;;;;;;4966108;28;20196;-84
2022/11/15 05:09:31;;;;;;;12.17;6.43;;;8.20;99.90;;;;;;4966570;28;20319;-82
2022/11/15 05:11:57;;;;;;;13.37;7.40;;;8.20;99.90;;;;;;4967758;28;20240;-84
2022/11/15 05:14:22;;;;;;;17.53;7.30;;;8.30;99.90;;;;;;4966890;28;21025;-84
2022/11/15 05:16:48;;;;;;;17.27;8.73;;;8.40;99.90;;;;;;4965004;28;20559;-84
2022/11/15 05:19:14;;;;;;;11.23;5.20;;;8.40;99.90;;;;;;4967774;28;20228;-81
2022/11/15 05:21:40;;;;;;;16.20;7.23;;;8.50;99.90;;;;;;4965920;28;20221;-81
2022/11/15 05:24:06;;;;;;;12.33;6.50;;;8.50;99.90;;;;;;4949527;28;20220;-83
2022/11/15 05:26:32;;;;;;;5.20;4.33;;;8.50;99.90;;;;;;4965902;28;20224;-82
2022/11/15 05:28:58;;;;;;;7.17;6.43;;;8.60;99.90;;;;;;4949024;28;20226;-81
2022/11/15 05:31:25;;;;;;;13.60;8.07;;;8.60;99.90;;;;;;4967127;28;20197;-82
2022/11/15 05:33:52;;;;;;;11.50;5.23;;;8.70;99.90;;;;;;4965402;28;20248;-81
2022/11/15 05:36:25;;;;;;;10.57;6.60;;;8.70;99.90;;;;;;4966001;28;20988;-83
2022/11/15 05:38:53;;;;;;;13.67;7.77;;;8.70;99.90;;;;;;4964785;28;20221;-81
2022/11/15 05:41:22;;;;;;;13.27;7.30;;;8.70;99.90;;;;;;4966193;28;20248;-81
2022/11/15 05:43:48;;;;;;;5.57;4.07;;;8.90;99.90;;;;;;4966332;28;20193;-81
2022/11/15 05:46:14;;;;;;;13.40;5.80;;;8.80;99.90;;;;;;4949310;28;20196;-81
2022/11/15 05:48:44;;;;;;;11.83;6.90;;;8.90;99.90;;;;;;4948524;28;20248;-82
2022/11/15 05:51:14;;;;;;;15.53;8.73;;;8.90;99.90;;;;;;4964960;28;20228;-82
2022/11/15 05:53:39;;;;;;;10.83;6.63;;;9.00;99.90;;;;;;4966075;28;20649;-82
2022/11/15 05:56:06;;;;;;;13.43;8.30;;;9.10;99.90;;;;;;4965072;28;20225;-81
2022/11/15 05:58:36;;;;;;;12.77;6.77;;;9.10;99.90;;;;;;4964071;28;20193;-82
2022/11/15 06:01:02;;;;;;;11.80;6.23;;;9.20;99.90;;;;;;4965377;28;20196;-80
2022/11/15 06:03:28;;;;;;;9.93;5.93;;;9.30;99.90;;;;;;4963681;28;20232;-79
2022/11/15 06:05:53;;;;;;;13.63;8.33;;;9.30;99.90;;;;;;4964808;28;20225;-80
2022/11/15 06:08:19;;;;;;;18.07;8.60;;;9.40;99.90;;;;;;4964171;28;20682;-81
2022/11/15 06:10:45;;;;;;;14.43;6.63;;;9.40;99.90;;;;;;4928254;28;20324;-81
2022/11/15 06:13:11;;;;;;;17.60;8.20;;;9.40;99.90;;;;;;4960037;28;20231;-82
2022/11/15 06:15:36;;;;;;;12.63;7.10;;;9.40;99.90;;;;;;4962439;28;20235;-81
2022/11/15 06:18:02;;;;;;;21.57;9.27;;;9.50;99.90;;;;;;4947416;28;20240;-83
2022/11/15 06:20:29;;;;;;;11.70;7.83;;;9.50;99.90;;;;;;4938616;28;20287;-82
2022/11/15 06:23:03;;;;;;;17.23;6.80;;;9.60;99.90;;;;;;4961831;28;20220;-81
2022/11/15 06:25:30;;;;;;;14.77;7.73;;;9.70;99.90;;;;;;4962815;28;20181;-80
2022/11/15 06:27:57;;;;;;;16.10;7.70;;;9.70;99.90;;;;;;4978081;28;20221;-82
2022/11/15 06:30:25;;;;;;;10.03;7.50;;;9.80;99.90;;;;;;4963099;28;20220;-81
2022/11/15 06:32:51;;;;;;;8.93;5.07;;;9.80;99.90;;;;;;4963076;28;20258;-80
2022/11/15 06:35:17;;;;;;;10.97;6.87;;;9.80;99.90;;;;;;4963443;28;20240;-81
2022/11/15 06:37:43;;;;;;;11.10;7.20;;;9.90;99.90;;;;;;4963770;28;21270;-81
2022/11/15 06:40:10;;;;;;;11.17;7.90;;;10.00;99.90;;;;;;4963015;28;20192;-82
2022/11/15 06:42:36;;;;;;;12.27;6.73;;;10.00;99.90;;;;;;4963526;28;20232;-83
2022/11/15 06:45:02;;;;;;;16.43;7.87;;;10.00;99.90;;;;;;4955903;28;20239;-82
2022/11/15 06:47:27;;;;;;;10.43;6.43;;;10.10;99.90;;;;;;4965022;28;20303;-82
2022/11/15 06:49:53;;;;;;;18.23;8.67;;;10.10;99.90;;;;;;4962640;28;21161;-81
2022/11/15 06:52:19;;;;;;;14.57;8.60;;;10.20;99.90;;;;;;4963894;28;20271;-81
2022/11/15 06:54:45;;;;;;;11.83;7.70;;;10.20;99.90;;;;;;4964542;28;20260;-82
2022/11/15 06:57:11;;;;;;;9.93;8.07;;;10.30;99.90;;;;;;4946766;28;20232;-81
2022/11/15 06:59:37;;;;;;;10.60;7.27;;;10.30;99.90;;;;;;4962274;28;20617;-82
2022/11/15 07:02:02;;;;;;;9.60;7.70;;;10.30;99.90;;;;;;4963963;28;20279;-82
2022/11/15 07:04:28;;;;;;;8.93;6.50;;;10.40;99.90;;;;;;4964025;28;20191;-80
2022/11/15 07:06:54;;;;;;;7.20;4.80;;;10.40;99.90;;;;;;4963067;28;20221;-81
2022/11/15 07:09:19;;;;;;;9.10;6.73;;;10.40;99.90;;;;;;4946904;28;20228;-83
2022/11/15 07:11:45;;;;;;;10.67;7.07;;;10.50;99.90;;;;;;4963575;28;20235;-83
2022/11/15 07:14:11;;;;;;;11.90;7.77;;;10.40;99.90;;;;;;4947347;28;20772;-81
2022/11/15 07:16:37;;;;;;;8.63;6.00;;;10.50;99.90;;;;;;4963507;28;20216;-82
2022/11/15 07:19:03;;;;;;;14.30;8.07;;;10.50;99.90;;;;;;4965017;28;20222;-81
2022/11/15 07:21:29;;;;;;;16.33;8.70;;;10.60;99.90;;;;;;4965132;28;20220;-82
2022/11/15 07:23:55;;;;;;;17.13;8.63;;;10.60;99.90;;;;;;4963381;28;20227;-81
2022/11/15 07:26:21;;;;;;;8.13;7.30;;;10.70;99.90;;;;;;4965007;28;20216;-82
2022/11/15 07:28:46;;;;;;;12.00;6.93;;;10.70;99.90;;;;;;4962891;28;20321;-82
2022/11/15 07:31:12;;;;;;;21.33;9.27;;;10.70;99.90;;;;;;4963853;28;20647;-82
2022/11/15 07:33:38;;;;;;;22.17;9.37;;;10.80;99.90;;;;;;4964656;28;20252;-82
2022/11/15 07:36:06;;;;;;;13.70;8.90;;;10.80;99.90;;;;;;4964336;28;20213;-82
2022/11/15 07:38:33;;;;;;;16.37;9.10;;;10.80;99.90;;;;;;4948303;28;20217;-82
2022/11/15 07:41:00;;;;;;;16.23;9.13;;;10.80;99.90;;;;;;4968306;28;20225;-81
2022/11/15 07:43:32;;;;;;;13.43;10.33;;;10.90;99.90;;;;;;4967473;28;20192;-82
2022/11/15 07:45:58;;;;;;;13.57;8.27;;;11.00;99.90;;;;;;4968940;28;20317;-82
2022/11/15 07:48:24;;;;;;;15.70;9.17;;;11.00;99.90;;;;;;4968761;28;20957;-83
2022/11/15 07:50:49;;;;;;;9.03;8.03;;;11.00;99.90;;;;;;4968279;28;20236;-79
2022/11/15 07:53:15;;;;;;;13.93;7.80;;;11.00;99.90;;;;;;4967601;28;20236;-82
2022/11/15 07:55:41;;;;;;;19.90;9.43;;;11.00;99.90;;;;;;4967654;28;20713;-83
2022/11/15 07:58:09;;;;;;;14.03;9.50;;;11.10;99.90;;;;;;4967723;28;21030;-83
2022/11/15 08:00:36;;;;;;;15.53;8.00;;;11.10;99.90;;;;;;4967143;28;20251;-82
2022/11/15 08:03:13;;;;;;;21.83;10.33;;;11.20;99.90;;;;;;4950733;28;20231;-83
2022/11/15 08:05:41;;;;;;;19.13;9.53;;;11.20;99.90;;;;;;4968320;28;20275;-82
2022/11/15 08:08:08;;;;;;;16.77;10.57;;;11.20;99.90;;;;;;4967333;28;20270;-81
2022/11/15 08:10:34;;;;;;;11.80;8.27;;;11.30;99.90;;;;;;4968002;28;20193;-81
2022/11/15 08:13:02;;;;;;;14.87;9.83;;;11.40;99.90;;;;;;4969279;28;20217;-82
2022/11/15 08:15:29;;;;;;;16.20;9.10;;;11.40;99.90;;;;;;4968025;28;20217;-83
2022/11/15 08:18:00;;;;;;;15.13;9.53;;;11.40;99.90;;;;;;4966927;28;20216;-81
2022/11/15 08:20:29;;;;;;;20.03;9.07;;;11.50;99.90;;;;;;4966660;28;20770;-83
2022/11/15 08:23:00;;;;;;;20.57;9.37;;;11.60;99.90;;;;;;4968059;28;20232;-88
2022/11/15 08:25:27;;;;;;;19.67;9.67;;;11.60;99.90;;;;;;4985085;28;20188;-86
2022/11/15 08:27:54;;;;;;;17.60;9.23;;;11.60;99.90;;;;;;4936133;28;20259;-86
2022/11/15 08:30:20;;;;;;;18.07;9.77;;;11.70;99.90;;;;;;4952116;28;20212;-85
2022/11/15 08:32:46;;;;;;;14.83;10.03;;;11.60;99.90;;;;;;4968485;28;20239;-85
2022/11/15 08:35:11;;;;;;;15.43;8.87;;;11.70;99.90;;;;;;4952258;28;20303;-87
2022/11/15 08:37:37;;;;;;;17.97;9.07;;;11.70;99.90;;;;;;4969044;28;20197;-87
2022/11/15 08:40:04;;;;;;;15.17;7.50;;;11.60;99.90;;;;;;4984727;28;20204;-89
2022/11/15 08:42:30;;;;;;;15.03;8.67;;;11.70;99.90;;;;;;4953139;28;20220;-87
2022/11/15 08:44:55;;;;;;;21.37;8.90;;;11.70;99.90;;;;;;4970011;28;20224;-91
2022/11/15 08:47:21;;;;;;;10.37;7.20;;;11.70;99.90;;;;;;4968795;28;20216;-90
2022/11/15 08:49:47;;;;;;;11.10;8.87;;;11.80;99.90;;;;;;4951384;28;20244;-91
2022/11/15 08:52:13;;;;;;;19.60;9.83;;;11.80;99.90;;;;;;4952428;28;20256;-89
2022/11/15 08:54:39;;;;;;;20.97;10.63;;;11.90;99.90;;;;;;4967842;28;20228;-92
2022/11/15 08:57:05;;;;;;;14.87;8.80;;;12.00;99.90;;;;;;4967877;28;20228;-92
2022/11/15 08:59:31;;;;;;;18.73;10.37;;;12.10;99.90;;;;;;4968651;28;20216;-90
2022/11/15 09:01:57;;;;;;;17.80;7.77;;;12.20;99.90;;;;;;4969503;28;20274;-92
2022/11/15 09:04:22;;;;;;;17.53;8.47;;;12.30;99.90;;;;;;4952655;28;20662;-93
2022/11/15 09:06:48;;;;;;;11.67;7.17;;;12.20;99.90;;;;;;4951904;28;20221;-94
2022/11/15 09:09:14;;;;;;;13.07;7.87;;;12.10;99.90;;;;;;4969312;28;20690;-94
2022/11/15 09:11:40;;;;;;;14.07;8.17;;;12.10;99.90;;;;;;4952215;28;20235;-91
2022/11/15 09:14:06;;;;;;;13.10;8.47;;;12.10;99.90;;;;;;4952043;28;20213;-92
2022/11/15 09:16:33;;;;;;;13.27;7.87;;;12.20;99.90;;;;;;4951687;28;20820;-91
2022/11/15 09:18:58;;;;;;;10.93;6.53;;;12.20;99.90;;;;;;4952773;28;20299;-93
2022/11/15 09:21:24;;;;;;;14.90;7.70;;;12.20;99.90;;;;;;4967938;28;20343;-90
2022/11/15 09:23:51;;;;;;;7.57;6.70;;;12.20;99.90;;;;;;4935611;28;21063;-90
2022/11/15 09:26:18;;;;;;;14.87;8.27;;;12.30;99.90;;;;;;4968484;28;20251;-91
2022/11/15 09:28:44;;;;;;;14.97;7.80;;;12.30;99.90;;;;;;4967850;28;20255;-89
2022/11/15 09:31:10;;;;;;;12.33;6.50;;;12.30;99.90;;;;;;4936847;28;20535;-93
2022/11/15 09:33:36;;;;;;;7.90;5.30;;;12.40;99.90;;;;;;4968412;28;20267;-92
2022/11/15 09:36:07;;;;;;;21.87;6.90;;;12.40;99.90;;;;;;4967111;28;20221;-89
2022/11/15 09:38:33;;;;;;;10.87;7.07;;;12.50;99.90;;;;;;4983528;28;20729;-89
2022/11/15 09:41:14;;;;;;;18.17;10.17;;;12.50;99.90;;;;;;4951758;28;20220;-89
2022/11/15 09:44:16;;;;;;;9.40;5.20;;;12.50;99.90;;;;;;4967769;28;20267;-90
2022/11/15 09:46:48;;;;;;;8.00;5.73;;;12.50;99.90;;;;;;4967139;28;20188;-91
2022/11/15 09:49:17;;;;;;;12.53;7.60;;;12.50;99.90;;;;;;4968811;28;20229;-89
2022/11/15 09:51:49;;;;;;;18.70;7.07;;;12.60;99.90;;;;;;4950357;28;20371;-89
2022/11/15 09:54:35;;;;;;;15.53;7.40;;;12.60;99.90;;;;;;4966775;28;20225;-92
2022/11/15 09:57:16;;;;;;;14.60;6.93;;;12.60;99.90;;;;;;4966993;28;20228;-91
2022/11/15 10:00:03;;;;;;;12.17;8.97;;;12.70;99.90;;;;;;4967217;28;20224;-93
2022/11/15 10:02:40;;;;;;;11.40;8.50;;;12.80;99.90;;;;;;4972789;28;20235;-92
2022/11/15 10:05:12;;;;;;;6.97;4.37;;;12.70;99.90;;;;;;4968731;28;20260;-93
2022/11/15 10:08:01;;;;;;;15.90;8.53;;;12.60;99.90;;;;;;4969699;28;20643;-93
2022/11/15 10:10:41;;;;;;;27.83;7.43;;;12.50;99.90;;;;;;4969244;28;20579;-92
2022/11/15 10:13:29;;;;;;;12.43;6.73;;;12.40;99.90;;;;;;4969942;28;20243;-91
2022/11/15 10:16:04;;;;;;;13.27;6.83;;;12.40;99.90;;;;;;4968765;28;20231;-94
2022/11/15 10:18:39;;;;;;;15.23;8.40;;;12.40;99.90;;;;;;4967471;28;20226;-92
2022/11/15 10:21:21;;;;;;;10.53;7.50;;;12.40;99.90;;;;;;4969779;28;20228;-94
2022/11/15 10:23:48;;;;;;;12.10;7.30;;;12.50;99.90;;;;;;4968305;28;20287;-91
2022/11/15 10:26:16;;;;;;;9.40;7.37;;;12.50;99.90;;;;;;4951588;28;20228;-93
2022/11/15 10:28:42;;;;;;;10.93;6.83;;;12.60;99.90;;;;;;4966644;28;20645;-91
2022/11/15 10:31:28;;;;;;;14.00;8.10;;;12.60;99.90;;;;;;4967556;28;20240;-91
2022/11/15 10:34:13;;;;;;;10.43;5.63;;;12.80;99.90;;;;;;4967705;28;20271;-95
2022/11/15 10:36:43;;;;;;;12.03;8.00;;;12.80;99.90;;;;;;4966694;28;20278;-93
2022/11/15 10:39:12;;;;;;;13.90;8.17;;;12.90;99.90;;;;;;4968635;28;20220;-93
2022/11/15 10:41:41;;;;;;;14.00;8.07;;;13.00;99.90;;;;;;4982892;28;20693;-93
2022/11/15 10:44:07;;;;;;;15.00;9.07;;;13.10;99.90;;;;;;4963903;28;20216;-93
2022/11/15 10:46:35;;;;;;;9.17;8.10;;;13.10;99.90;;;;;;4966007;28;20197;-90
2022/11/15 10:49:30;;;;;;;30.20;7.57;;;13.10;99.90;;;;;;4966378;28;20267;-90
2022/11/15 10:52:01;;;;;;;9.13;5.80;;;13.10;99.90;;;;;;4965051;28;20239;-94
2022/11/15 10:54:41;;;;;;;11.20;6.93;;;13.20;99.90;;;;;;4966217;28;20225;-91
2022/11/15 10:57:19;;;;;;;12.27;7.50;;;13.20;99.90;;;;;;4966306;28;20301;-91
2022/11/15 10:59:55;;;;;;;9.27;6.30;;;13.20;99.90;;;;;;4965786;28;20594;-92
2022/11/15 11:02:39;;;;;;;10.70;5.73;;;13.30;99.90;;;;;;4965849;28;20579;-92
2022/11/15 11:05:35;;;;;;;11.07;6.33;;;13.30;99.90;;;;;;4966895;28;20222;-89
2022/11/15 11:08:14;;;;;;;9.80;5.20;;;13.30;99.90;;;;;;4965710;28;20273;-92
2022/11/15 11:11:01;;;;;;;12.83;5.67;;;13.30;99.90;;;;;;4967735;28;20189;-90
2022/11/15 11:13:34;;;;;;;5.93;4.80;;;13.40;99.90;;;;;;4970923;28;20705;-89
2022/11/15 11:16:25;;;;;;;10.17;5.93;;;13.30;99.90;;;;;;4975104;28;20208;-91
2022/11/15 11:19:23;;;;;;;15.17;6.53;;;13.30;99.90;;;;;;4975160;28;20228;-92
2022/11/15 11:22:46;;;;;;;6.23;4.27;;;13.40;99.90;;;;;;4992656;28;20686;-93
2022/11/15 11:25:33;;;;;;;5.93;4.73;;;13.40;99.90;;;;;;4900950;29;20230;-92
2022/11/15 11:28:37;;;;;;;8.83;5.37;;;13.40;99.90;;;;;;4900896;29;20218;-91
2022/11/15 11:31:09;;;;;;;10.03;5.70;;;13.40;99.90;;;;;;4957306;28;20682;-90
2022/11/15 11:33:49;;;;;;;8.13;4.37;;;13.40;99.90;;;;;;4971205;28;20552;-91
2022/11/15 11:36:32;;;;;;;10.37;6.33;;;13.30;99.90;;;;;;4969391;28;20315;-89
2022/11/15 11:39:20;;;;;;;9.07;5.07;;;13.30;99.90;;;;;;4970624;28;20251;-89
2022/11/15 11:42:12;;;;;;;8.50;5.73;;;13.30;99.90;;;;;;4971624;28;20244;-91
2022/11/15 11:45:05;;;;;;;15.83;6.57;;;13.30;99.90;;;;;;4949161;28;20212;-90
2022/11/15 11:47:36;;;;;;;7.57;5.57;;;13.30;99.90;;;;;;4970837;28;20236;-93
2022/11/15 11:50:15;;;;;;;6.73;5.70;;;13.30;99.90;;;;;;4969452;28;20241;-94
2022/11/15 11:53:24;;;;;;;7.40;4.47;;;13.30;99.90;;;;;;4976499;28;20439;-90
2022/11/15 11:55:54;;;;;;;8.20;5.57;;;13.30;99.90;;;;;;4933967;28;20198;-91
2022/11/15 11:58:27;;;;;;;9.17;4.77;;;13.30;99.90;;;;;;4970342;28;20275;-92
2022/11/15 12:01:18;;;;;;;4.97;3.60;;;13.40;99.90;;;;;;4969453;28;20244;-94
2022/11/15 12:04:05;;;;;;;7.13;4.33;;;13.40;99.90;;;;;;4959097;28;20244;-91
2022/11/15 12:06:37;;;;;;;8.87;3.87;;;13.40;99.90;;;;;;4969681;28;20228;-90
2022/11/15 12:09:17;;;;;;;6.47;4.87;;;13.60;99.90;;;;;;4969774;28;20252;-91
2022/11/15 12:12:09;;;;;;;5.40;4.70;;;13.70;99.90;;;;;;4969420;28;20236;-89
2022/11/15 12:15:04;;;;;;;5.40;4.00;;;13.70;99.90;;;;;;4969691;28;20228;-89
2022/11/15 12:17:31;;;;;;;4.93;3.60;;;13.80;99.90;;;;;;4970686;28;21433;-90
2022/11/15 12:20:07;;;;;;;4.47;4.07;;;13.80;99.90;;;;;;4969721;28;20304;-91
2022/11/15 12:22:41;;;;;;;8.53;4.47;;;13.80;99.90;;;;;;4970132;28;20192;-88
2022/11/15 12:25:28;;;;;;;4.50;3.90;;;13.60;99.90;;;;;;4969496;28;20185;-92
2022/11/15 12:28:01;;;;;;;9.13;4.17;;;13.60;99.90;;;;;;4968960;28;20263;-91
2022/11/15 12:30:41;;;;;;;6.07;4.67;;;13.60;99.90;;;;;;4986365;28;20315;-88
2022/11/15 12:33:36;;;;;;;5.87;4.73;;;13.60;99.90;;;;;;4985085;28;20220;-94
2022/11/15 12:36:30;;;;;;;12.40;4.33;;;13.70;99.90;;;;;;4969080;28;20320;-91
2022/11/15 12:38:55;;;;;;;7.60;4.27;;;13.80;99.90;;;;;;4969027;28;20244;-91
2022/11/15 12:41:36;;;;;;;8.43;3.73;;;13.90;99.90;;;;;;4968659;28;20328;-92
2022/11/15 12:44:04;;;;;;;4.33;2.90;;;13.70;99.90;;;;;;4968827;28;20231;-91
2022/11/15 12:46:29;;;;;;;9.70;3.77;;;13.70;99.90;;;;;;4952872;28;20200;-91
2022/11/15 12:49:01;;;;;;;8.07;4.33;;;13.60;99.90;;;;;;4970083;28;20233;-92
2022/11/15 12:51:42;;;;;;;5.03;3.57;;;13.60;99.90;;;;;;4968548;28;20299;-88
2022/11/15 12:54:40;;;;;;;4.33;2.20;;;13.70;99.90;;;;;;4969022;28;20236;-92
2022/11/15 12:57:06;;;;;;;7.40;3.90;;;13.70;99.90;;;;;;4942539;28;20733;-90
2022/11/15 12:59:47;;;;;;;8.20;4.57;;;13.80;99.90;;;;;;4968389;28;20212;-91
2022/11/15 13:02:21;;;;;;;10.07;3.80;;;13.70;99.90;;;;;;4968531;28;20229;-91
2022/11/15 13:04:47;;;;;;;3.63;2.73;;;13.70;99.90;;;;;;4969395;28;20875;-90
2022/11/15 13:07:35;;;;;;;5.77;2.70;;;13.60;99.90;;;;;;4969739;28;20788;-90
2022/11/15 13:10:21;;;;;;;3.73;2.03;;;13.60;99.90;;;;;;4968326;28;20228;-93
2022/11/15 13:12:47;;;;;;;2.13;1.87;;;13.50;99.90;;;;;;4968992;28;20236;-90
2022/11/15 13:15:12;;;;;;;4.77;2.57;;;13.50;99.90;;;;;;4968150;28;20243;-90
2022/11/15 13:17:49;;;;;;;8.13;4.90;;;13.50;99.90;;;;;;4970276;28;20290;-89